OAHR

Details ICAO OAHR (HEA)
Name HERAT
Region Afghanistan
Timezone Asia/Kabul (UTC+4.5)
Plans Departing 8
Arriving 10
Stats Elevation 3,206 ft / 977 m (AMSL)
Location 34.210017° 62.228300°
Runways 1
Magnetic Variation 3.570° E
Sunrise 2018-05-20 00:47:31 UTC / 2018-05-20 05:17:31 Local
Sunset 2018-05-20 14:50:32 UTC / 2018-05-20 19:20:32 Local
Advertisement - Login to hide

Runways

ID Width Length Bearing (true) Bearing (mag) Surface Threshold Offset Overrun Length
18 150 ft / 46 m 8,240 ft / 2,512 m 187.25° 183.68° Asphalt 0 ft / 0 m 0 ft / 0 m
36 150 ft / 46 m 8,240 ft / 2,512 m 7.25° 3.68° Asphalt 0 ft / 0 m 0 ft / 0 m

Map

Weather


0- 5 10 15 20 25 30 35+ Temperature / ° C

Clouds and Precipitation
Forecast for 2018-05-20 12:00 UTC. Updated an hour ago

Ground ~20,000 ft ~40,000 ft Winds

METAR

OAHR 200955Z 01011KT 9999 FEW080 25/01 Q1019 RMK A3011 BLU

TAF

TAF AMD OAHR 200100Z 2001/2024 VRB02KT CAVOK BECMG 2005/2007 01010KT TEMPO 2007/2013 01012G22KT

Frequencies

Tower 118.10 MHz TWR
Warning: Do not use this data for real-world aviation or navigation. No guarantee of current accuracy is given.